sensor_id;sensor_type;location;lat;lon;timestamp;P1;durP1;ratioP1;P2;durP2;ratioP2
10311;SDS011;5201;48.776;9.128;2022-11-24T00:01:19;4.47;;;0.97;;
10311;SDS011;5201;48.776;9.128;2022-11-24T00:03:51;7.53;;;1.00;;
10311;SDS011;5201;48.776;9.128;2022-11-24T00:06:21;4.00;;;0.90;;
10311;SDS011;5201;48.776;9.128;2022-11-24T00:08:47;7.07;;;1.07;;
10311;SDS011;5201;48.776;9.128;2022-11-24T00:11:18;4.47;;;1.10;;
10311;SDS011;5201;48.776;9.128;2022-11-24T00:13:45;4.90;;;1.27;;
10311;SDS011;5201;48.776;9.128;2022-11-24T00:16:21;6.07;;;1.20;;
10311;SDS011;5201;48.776;9.128;2022-11-24T00:18:58;3.40;;;1.20;;
10311;SDS011;5201;48.776;9.128;2022-11-24T00:21:26;3.37;;;1.00;;
10311;SDS011;5201;48.776;9.128;2022-11-24T00:23:53;5.30;;;1.20;;
10311;SDS011;5201;48.776;9.128;2022-11-24T00:28:46;8.43;;;1.20;;
10311;SDS011;5201;48.776;9.128;2022-11-24T00:31:15;6.50;;;1.07;;
10311;SDS011;5201;48.776;9.128;2022-11-24T00:33:42;4.87;;;1.33;;
10311;SDS011;5201;48.776;9.128;2022-11-24T00:36:08;4.50;;;1.93;;
10311;SDS011;5201;48.776;9.128;2022-11-24T00:38:34;6.83;;;1.43;;
10311;SDS011;5201;48.776;9.128;2022-11-24T00:40:59;5.00;;;1.33;;
10311;SDS011;5201;48.776;9.128;2022-11-24T00:43:25;1.77;;;0.80;;
10311;SDS011;5201;48.776;9.128;2022-11-24T00:45:51;3.70;;;1.03;;
10311;SDS011;5201;48.776;9.128;2022-11-24T00:48:16;4.70;;;1.10;;
10311;SDS011;5201;48.776;9.128;2022-11-24T00:50:42;4.93;;;1.10;;
10311;SDS011;5201;48.776;9.128;2022-11-24T00:53:07;4.33;;;1.20;;
10311;SDS011;5201;48.776;9.128;2022-11-24T00:55:33;4.57;;;1.27;;
10311;SDS011;5201;48.776;9.128;2022-11-24T00:57:59;4.87;;;1.40;;
10311;SDS011;5201;48.776;9.128;2022-11-24T01:00:25;8.37;;;1.40;;
10311;SDS011;5201;48.776;9.128;2022-11-24T01:02:51;3.47;;;1.03;;
10311;SDS011;5201;48.776;9.128;2022-11-24T01:05:17;6.90;;;1.33;;
10311;SDS011;5201;48.776;9.128;2022-11-24T01:07:42;4.30;;;1.10;;
10311;SDS011;5201;48.776;9.128;2022-11-24T01:10:08;6.77;;;1.10;;
10311;SDS011;5201;48.776;9.128;2022-11-24T01:12:34;9.30;;;1.27;;
10311;SDS011;5201;48.776;9.128;2022-11-24T01:14:59;5.63;;;1.13;;
10311;SDS011;5201;48.776;9.128;2022-11-24T01:17:25;4.13;;;1.10;;
10311;SDS011;5201;48.776;9.128;2022-11-24T01:19:51;4.67;;;1.10;;
10311;SDS011;5201;48.776;9.128;2022-11-24T01:22:16;10.07;;;1.20;;
10311;SDS011;5201;48.776;9.128;2022-11-24T01:24:42;3.50;;;1.17;;
10311;SDS011;5201;48.776;9.128;2022-11-24T01:27:08;6.83;;;1.03;;
10311;SDS011;5201;48.776;9.128;2022-11-24T01:29:34;6.10;;;1.27;;
10311;SDS011;5201;48.776;9.128;2022-11-24T01:32:01;3.60;;;0.97;;
10311;SDS011;5201;48.776;9.128;2022-11-24T01:34:27;3.93;;;0.90;;
10311;SDS011;5201;48.776;9.128;2022-11-24T01:36:53;5.90;;;0.97;;
10311;SDS011;5201;48.776;9.128;2022-11-24T01:39:18;9.67;;;1.30;;
10311;SDS011;5201;48.776;9.128;2022-11-24T01:41:44;9.47;;;1.50;;
10311;SDS011;5201;48.776;9.128;2022-11-24T01:44:25;11.80;;;1.07;;
10311;SDS011;5201;48.776;9.128;2022-11-24T01:47:17;7.03;;;1.30;;
10311;SDS011;5201;48.776;9.128;2022-11-24T01:50:00;4.97;;;0.90;;
10311;SDS011;5201;48.776;9.128;2022-11-24T01:52:31;5.17;;;1.20;;
10311;SDS011;5201;48.776;9.128;2022-11-24T01:55:03;5.03;;;1.40;;
10311;SDS011;5201;48.776;9.128;2022-11-24T01:57:36;4.87;;;1.10;;
10311;SDS011;5201;48.776;9.128;2022-11-24T02:00:08;2.10;;;0.90;;
10311;SDS011;5201;48.776;9.128;2022-11-24T02:02:36;4.80;;;1.20;;
10311;SDS011;5201;48.776;9.128;2022-11-24T02:05:03;3.40;;;1.30;;
10311;SDS011;5201;48.776;9.128;2022-11-24T02:07:34;10.90;;;1.30;;
10311;SDS011;5201;48.776;9.128;2022-11-24T02:10:02;4.10;;;0.93;;
10311;SDS011;5201;48.776;9.128;2022-11-24T02:12:32;5.67;;;1.17;;
10311;SDS011;5201;48.776;9.128;2022-11-24T02:14:59;3.57;;;0.90;;
10311;SDS011;5201;48.776;9.128;2022-11-24T02:17:25;3.80;;;1.00;;
10311;SDS011;5201;48.776;9.128;2022-11-24T02:19:55;7.87;;;1.13;;
10311;SDS011;5201;48.776;9.128;2022-11-24T02:22:41;4.50;;;1.10;;
10311;SDS011;5201;48.776;9.128;2022-11-24T02:25:31;4.37;;;1.30;;
10311;SDS011;5201;48.776;9.128;2022-11-24T02:27:59;4.77;;;1.03;;
10311;SDS011;5201;48.776;9.128;2022-11-24T02:30:26;2.53;;;0.90;;
10311;SDS011;5201;48.776;9.128;2022-11-24T02:32:52;4.13;;;1.03;;
10311;SDS011;5201;48.776;9.128;2022-11-24T02:35:18;5.23;;;1.00;;
10311;SDS011;5201;48.776;9.128;2022-11-24T02:37:44;1.70;;;0.80;;
10311;SDS011;5201;48.776;9.128;2022-11-24T02:40:09;7.83;;;1.20;;
10311;SDS011;5201;48.776;9.128;2022-11-24T02:42:39;3.77;;;0.90;;
10311;SDS011;5201;48.776;9.128;2022-11-24T02:45:07;3.30;;;0.90;;
10311;SDS011;5201;48.776;9.128;2022-11-24T02:47:34;4.43;;;0.70;;
10311;SDS011;5201;48.776;9.128;2022-11-24T02:49:59;2.80;;;1.03;;
10311;SDS011;5201;48.776;9.128;2022-11-24T02:52:25;2.97;;;0.93;;
10311;SDS011;5201;48.776;9.128;2022-11-24T02:54:51;3.70;;;1.20;;
10311;SDS011;5201;48.776;9.128;2022-11-24T02:57:16;3.70;;;0.90;;
10311;SDS011;5201;48.776;9.128;2022-11-24T02:59:42;4.03;;;1.10;;
10311;SDS011;5201;48.776;9.128;2022-11-24T03:02:07;2.80;;;0.93;;
10311;SDS011;5201;48.776;9.128;2022-11-24T03:04:34;2.63;;;0.87;;
10311;SDS011;5201;48.776;9.128;2022-11-24T03:06:59;3.30;;;0.73;;
10311;SDS011;5201;48.776;9.128;2022-11-24T03:09:25;2.77;;;1.00;;
10311;SDS011;5201;48.776;9.128;2022-11-24T03:11:51;3.80;;;1.10;;
10311;SDS011;5201;48.776;9.128;2022-11-24T03:14:16;5.27;;;1.03;;
10311;SDS011;5201;48.776;9.128;2022-11-24T03:16:42;4.67;;;0.93;;
10311;SDS011;5201;48.776;9.128;2022-11-24T03:19:07;3.73;;;0.73;;
10311;SDS011;5201;48.776;9.128;2022-11-24T03:21:34;4.87;;;0.90;;
10311;SDS011;5201;48.776;9.128;2022-11-24T03:24:00;2.67;;;0.80;;
10311;SDS011;5201;48.776;9.128;2022-11-24T03:26:27;5.53;;;1.00;;
10311;SDS011;5201;48.776;9.128;2022-11-24T03:28:56;3.83;;;0.93;;
10311;SDS011;5201;48.776;9.128;2022-11-24T03:31:22;2.23;;;0.90;;
10311;SDS011;5201;48.776;9.128;2022-11-24T03:33:48;1.67;;;0.80;;
10311;SDS011;5201;48.776;9.128;2022-11-24T03:36:14;5.90;;;0.90;;
10311;SDS011;5201;48.776;9.128;2022-11-24T03:38:40;3.03;;;1.27;;
10311;SDS011;5201;48.776;9.128;2022-11-24T03:41:06;4.43;;;0.90;;
10311;SDS011;5201;48.776;9.128;2022-11-24T03:43:32;3.00;;;0.60;;
10311;SDS011;5201;48.776;9.128;2022-11-24T03:45:57;3.27;;;0.90;;
10311;SDS011;5201;48.776;9.128;2022-11-24T03:48:23;3.47;;;0.87;;
10311;SDS011;5201;48.776;9.128;2022-11-24T03:50:53;5.03;;;0.70;;
10311;SDS011;5201;48.776;9.128;2022-11-24T03:53:20;1.23;;;0.70;;
10311;SDS011;5201;48.776;9.128;2022-11-24T03:55:46;8.13;;;1.03;;
10311;SDS011;5201;48.776;9.128;2022-11-24T03:58:11;7.20;;;0.93;;
10311;SDS011;5201;48.776;9.128;2022-11-24T04:00:37;2.83;;;0.90;;
10311;SDS011;5201;48.776;9.128;2022-11-24T04:03:03;1.60;;;0.60;;
10311;SDS011;5201;48.776;9.128;2022-11-24T04:05:28;4.20;;;1.00;;
10311;SDS011;5201;48.776;9.128;2022-11-24T04:07:54;3.00;;;0.90;;
10311;SDS011;5201;48.776;9.128;2022-11-24T04:10:27;3.13;;;1.00;;
10311;SDS011;5201;48.776;9.128;2022-11-24T04:12:53;1.60;;;0.87;;
10311;SDS011;5201;48.776;9.128;2022-11-24T04:15:19;4.57;;;0.73;;
10311;SDS011;5201;48.776;9.128;2022-11-24T04:17:46;2.83;;;0.90;;
10311;SDS011;5201;48.776;9.128;2022-11-24T04:20:12;0.80;;;0.80;;
10311;SDS011;5201;48.776;9.128;2022-11-24T04:22:39;2.87;;;0.90;;
10311;SDS011;5201;48.776;9.128;2022-11-24T04:25:04;2.57;;;1.00;;
10311;SDS011;5201;48.776;9.128;2022-11-24T04:27:31;6.60;;;1.30;;
10311;SDS011;5201;48.776;9.128;2022-11-24T04:29:57;4.03;;;0.90;;
10311;SDS011;5201;48.776;9.128;2022-11-24T04:32:23;3.73;;;1.17;;
10311;SDS011;5201;48.776;9.128;2022-11-24T04:34:49;4.17;;;0.90;;
10311;SDS011;5201;48.776;9.128;2022-11-24T04:37:14;7.20;;;0.97;;
10311;SDS011;5201;48.776;9.128;2022-11-24T04:39:40;5.00;;;0.77;;
10311;SDS011;5201;48.776;9.128;2022-11-24T04:42:06;4.00;;;0.90;;
10311;SDS011;5201;48.776;9.128;2022-11-24T04:44:31;1.83;;;1.13;;
10311;SDS011;5201;48.776;9.128;2022-11-24T04:46:57;6.87;;;0.93;;
10311;SDS011;5201;48.776;9.128;2022-11-24T04:49:23;6.70;;;1.30;;
10311;SDS011;5201;48.776;9.128;2022-11-24T04:51:48;6.47;;;1.10;;
10311;SDS011;5201;48.776;9.128;2022-11-24T04:54:14;4.63;;;1.57;;
10311;SDS011;5201;48.776;9.128;2022-11-24T04:56:40;4.00;;;0.97;;
10311;SDS011;5201;48.776;9.128;2022-11-24T04:59:06;13.20;;;1.30;;
10311;SDS011;5201;48.776;9.128;2022-11-24T05:01:32;3.43;;;1.00;;
10311;SDS011;5201;48.776;9.128;2022-11-24T05:03:58;4.40;;;1.00;;
10311;SDS011;5201;48.776;9.128;2022-11-24T05:06:24;3.33;;;1.00;;
10311;SDS011;5201;48.776;9.128;2022-11-24T05:08:50;2.57;;;0.80;;
10311;SDS011;5201;48.776;9.128;2022-11-24T05:11:16;1.83;;;1.00;;
10311;SDS011;5201;48.776;9.128;2022-11-24T05:13:43;4.00;;;0.97;;
10311;SDS011;5201;48.776;9.128;2022-11-24T05:16:08;7.53;;;1.30;;
10311;SDS011;5201;48.776;9.128;2022-11-24T05:18:35;10.00;;;1.20;;
10311;SDS011;5201;48.776;9.128;2022-11-24T05:21:01;6.03;;;1.40;;
10311;SDS011;5201;48.776;9.128;2022-11-24T05:23:27;11.70;;;1.10;;
10311;SDS011;5201;48.776;9.128;2022-11-24T05:25:53;6.33;;;1.10;;
10311;SDS011;5201;48.776;9.128;2022-11-24T05:28:22;3.50;;;1.20;;
10311;SDS011;5201;48.776;9.128;2022-11-24T05:30:48;3.93;;;1.27;;
10311;SDS011;5201;48.776;9.128;2022-11-24T05:33:14;8.20;;;1.17;;
10311;SDS011;5201;48.776;9.128;2022-11-24T05:35:42;12.13;;;1.57;;
10311;SDS011;5201;48.776;9.128;2022-11-24T05:38:09;2.00;;;0.80;;
10311;SDS011;5201;48.776;9.128;2022-11-24T05:40:35;4.03;;;1.10;;
10311;SDS011;5201;48.776;9.128;2022-11-24T05:43:01;5.73;;;1.57;;
10311;SDS011;5201;48.776;9.128;2022-11-24T05:45:27;8.10;;;2.07;;
10311;SDS011;5201;48.776;9.128;2022-11-24T05:47:53;6.80;;;1.20;;
10311;SDS011;5201;48.776;9.128;2022-11-24T05:50:19;2.33;;;1.10;;
10311;SDS011;5201;48.776;9.128;2022-11-24T05:52:46;5.17;;;1.40;;
10311;SDS011;5201;48.776;9.128;2022-11-24T05:55:13;3.23;;;1.20;;
10311;SDS011;5201;48.776;9.128;2022-11-24T05:57:39;8.10;;;1.33;;
10311;SDS011;5201;48.776;9.128;2022-11-24T06:00:05;5.30;;;1.03;;
10311;SDS011;5201;48.776;9.128;2022-11-24T06:02:32;4.77;;;1.20;;
10311;SDS011;5201;48.776;9.128;2022-11-24T06:04:58;6.67;;;1.50;;
10311;SDS011;5201;48.776;9.128;2022-11-24T06:07:23;8.03;;;1.30;;
10311;SDS011;5201;48.776;9.128;2022-11-24T06:09:49;4.10;;;1.00;;
10311;SDS011;5201;48.776;9.128;2022-11-24T06:12:15;6.23;;;1.10;;
10311;SDS011;5201;48.776;9.128;2022-11-24T06:14:40;4.97;;;1.10;;
10311;SDS011;5201;48.776;9.128;2022-11-24T06:17:06;6.40;;;1.43;;
10311;SDS011;5201;48.776;9.128;2022-11-24T06:19:33;8.33;;;1.27;;
10311;SDS011;5201;48.776;9.128;2022-11-24T06:21:59;6.90;;;1.67;;
10311;SDS011;5201;48.776;9.128;2022-11-24T06:24:30;6.10;;;1.30;;
10311;SDS011;5201;48.776;9.128;2022-11-24T06:26:55;5.23;;;1.73;;
10311;SDS011;5201;48.776;9.128;2022-11-24T06:29:21;9.23;;;1.20;;
10311;SDS011;5201;48.776;9.128;2022-11-24T06:31:46;2.77;;;1.20;;
10311;SDS011;5201;48.776;9.128;2022-11-24T06:34:12;8.30;;;1.10;;
10311;SDS011;5201;48.776;9.128;2022-11-24T06:36:38;5.17;;;1.20;;
10311;SDS011;5201;48.776;9.128;2022-11-24T06:39:04;6.47;;;2.07;;
10311;SDS011;5201;48.776;9.128;2022-11-24T06:41:30;4.33;;;1.27;;
10311;SDS011;5201;48.776;9.128;2022-11-24T06:43:56;5.47;;;1.00;;
10311;SDS011;5201;48.776;9.128;2022-11-24T06:46:22;7.30;;;1.37;;
10311;SDS011;5201;48.776;9.128;2022-11-24T06:48:51;7.07;;;1.20;;
10311;SDS011;5201;48.776;9.128;2022-11-24T06:51:17;7.57;;;2.03;;
10311;SDS011;5201;48.776;9.128;2022-11-24T06:53:43;1.23;;;0.77;;
10311;SDS011;5201;48.776;9.128;2022-11-24T06:56:09;2.90;;;1.00;;
10311;SDS011;5201;48.776;9.128;2022-11-24T06:58:40;10.40;;;1.13;;
10311;SDS011;5201;48.776;9.128;2022-11-24T07:01:08;9.57;;;1.17;;
10311;SDS011;5201;48.776;9.128;2022-11-24T07:03:37;3.83;;;1.20;;
10311;SDS011;5201;48.776;9.128;2022-11-24T07:06:03;5.37;;;1.53;;
10311;SDS011;5201;48.776;9.128;2022-11-24T07:08:31;5.23;;;1.57;;
10311;SDS011;5201;48.776;9.128;2022-11-24T07:11:02;7.90;;;1.53;;
10311;SDS011;5201;48.776;9.128;2022-11-24T07:13:28;8.00;;;1.37;;
10311;SDS011;5201;48.776;9.128;2022-11-24T07:15:54;3.83;;;1.20;;
10311;SDS011;5201;48.776;9.128;2022-11-24T07:18:20;4.60;;;1.60;;
10311;SDS011;5201;48.776;9.128;2022-11-24T07:20:45;10.40;;;1.57;;
10311;SDS011;5201;48.776;9.128;2022-11-24T07:23:11;3.73;;;1.37;;
10311;SDS011;5201;48.776;9.128;2022-11-24T07:25:37;9.60;;;1.40;;
10311;SDS011;5201;48.776;9.128;2022-11-24T07:28:02;9.33;;;1.53;;
10311;SDS011;5201;48.776;9.128;2022-11-24T07:30:29;11.03;;;1.90;;
10311;SDS011;5201;48.776;9.128;2022-11-24T07:33:01;7.87;;;1.30;;
10311;SDS011;5201;48.776;9.128;2022-11-24T07:35:27;7.03;;;1.83;;
10311;SDS011;5201;48.776;9.128;2022-11-24T07:37:56;3.37;;;0.83;;
10311;SDS011;5201;48.776;9.128;2022-11-24T07:40:23;11.03;;;1.27;;
10311;SDS011;5201;48.776;9.128;2022-11-24T07:42:50;4.27;;;1.10;;
10311;SDS011;5201;48.776;9.128;2022-11-24T07:45:16;6.67;;;1.47;;
10311;SDS011;5201;48.776;9.128;2022-11-24T07:47:42;6.60;;;1.03;;
10311;SDS011;5201;48.776;9.128;2022-11-24T07:50:08;2.97;;;0.93;;
10311;SDS011;5201;48.776;9.128;2022-11-24T07:52:35;4.93;;;1.23;;
10311;SDS011;5201;48.776;9.128;2022-11-24T07:55:01;10.67;;;1.27;;
10311;SDS011;5201;48.776;9.128;2022-11-24T07:57:28;3.80;;;1.00;;
10311;SDS011;5201;48.776;9.128;2022-11-24T07:59:54;8.33;;;0.90;;
10311;SDS011;5201;48.776;9.128;2022-11-24T08:02:20;2.30;;;1.00;;
10311;SDS011;5201;48.776;9.128;2022-11-24T08:04:45;4.73;;;0.80;;
10311;SDS011;5201;48.776;9.128;2022-11-24T08:07:11;6.23;;;1.00;;
10311;SDS011;5201;48.776;9.128;2022-11-24T08:09:37;3.13;;;0.90;;
10311;SDS011;5201;48.776;9.128;2022-11-24T08:12:02;1.90;;;0.73;;
10311;SDS011;5201;48.776;9.128;2022-11-24T08:14:28;5.77;;;1.00;;
10311;SDS011;5201;48.776;9.128;2022-11-24T08:16:53;1.83;;;0.80;;
10311;SDS011;5201;48.776;9.128;2022-11-24T08:19:20;1.93;;;0.90;;
10311;SDS011;5201;48.776;9.128;2022-11-24T08:21:46;2.00;;;0.70;;
10311;SDS011;5201;48.776;9.128;2022-11-24T08:24:12;2.77;;;0.50;;
10311;SDS011;5201;48.776;9.128;2022-11-24T08:26:39;0.97;;;0.73;;
10311;SDS011;5201;48.776;9.128;2022-11-24T08:29:05;3.03;;;0.80;;
10311;SDS011;5201;48.776;9.128;2022-11-24T08:31:31;3.77;;;0.60;;
10311;SDS011;5201;48.776;9.128;2022-11-24T08:33:57;1.53;;;0.90;;
10311;SDS011;5201;48.776;9.128;2022-11-24T08:36:24;0.63;;;0.60;;
10311;SDS011;5201;48.776;9.128;2022-11-24T08:38:56;1.73;;;0.67;;
10311;SDS011;5201;48.776;9.128;2022-11-24T08:41:24;1.13;;;0.50;;
10311;SDS011;5201;48.776;9.128;2022-11-24T08:43:50;0.60;;;0.60;;
10311;SDS011;5201;48.776;9.128;2022-11-24T08:46:16;1.40;;;0.60;;
10311;SDS011;5201;48.776;9.128;2022-11-24T08:48:43;0.87;;;0.60;;
10311;SDS011;5201;48.776;9.128;2022-11-24T08:51:17;0.93;;;0.50;;
10311;SDS011;5201;48.776;9.128;2022-11-24T08:53:44;0.87;;;0.50;;
10311;SDS011;5201;48.776;9.128;2022-11-24T08:56:10;1.47;;;0.50;;
10311;SDS011;5201;48.776;9.128;2022-11-24T08:58:37;1.57;;;0.50;;
10311;SDS011;5201;48.776;9.128;2022-11-24T09:01:04;1.40;;;0.70;;
10311;SDS011;5201;48.776;9.128;2022-11-24T09:03:31;2.40;;;0.60;;
10311;SDS011;5201;48.776;9.128;2022-11-24T09:05:57;2.97;;;0.60;;
10311;SDS011;5201;48.776;9.128;2022-11-24T09:08:24;0.50;;;0.47;;
10311;SDS011;5201;48.776;9.128;2022-11-24T09:10:49;0.53;;;0.40;;
10311;SDS011;5201;48.776;9.128;2022-11-24T09:13:15;1.13;;;0.50;;
10311;SDS011;5201;48.776;9.128;2022-11-24T09:15:41;1.13;;;0.37;;
10311;SDS011;5201;48.776;9.128;2022-11-24T09:18:06;0.40;;;0.40;;
10311;SDS011;5201;48.776;9.128;2022-11-24T09:20:33;0.70;;;0.67;;
10311;SDS011;5201;48.776;9.128;2022-11-24T09:22:59;0.40;;;0.40;;
10311;SDS011;5201;48.776;9.128;2022-11-24T09:25:24;0.53;;;0.50;;
10311;SDS011;5201;48.776;9.128;2022-11-24T09:27:50;0.63;;;0.40;;
10311;SDS011;5201;48.776;9.128;2022-11-24T09:30:16;1.90;;;0.40;;
10311;SDS011;5201;48.776;9.128;2022-11-24T09:32:41;0.53;;;0.40;;
10311;SDS011;5201;48.776;9.128;2022-11-24T09:35:07;2.03;;;0.50;;
10311;SDS011;5201;48.776;9.128;2022-11-24T09:37:33;1.70;;;0.43;;
10311;SDS011;5201;48.776;9.128;2022-11-24T09:39:59;0.63;;;0.40;;
10311;SDS011;5201;48.776;9.128;2022-11-24T09:50:51;0.43;;;0.43;;
10311;SDS011;5201;48.776;9.128;2022-11-24T09:53:24;0.50;;;0.40;;
10311;SDS011;5201;48.776;9.128;2022-11-24T09:55:54;1.07;;;0.40;;
10311;SDS011;5201;48.776;9.128;2022-11-24T10:01:19;0.97;;;0.47;;
10311;SDS011;5201;48.776;9.128;2022-11-24T10:03:56;1.30;;;0.40;;
10311;SDS011;5201;48.776;9.128;2022-11-24T10:14:29;0.33;;;0.33;;
10311;SDS011;5201;48.776;9.128;2022-11-24T10:20:07;2.30;;;0.53;;
10311;SDS011;5201;48.776;9.128;2022-11-24T10:22:49;1.00;;;0.30;;
10311;SDS011;5201;48.776;9.128;2022-11-24T10:28:11;0.20;;;0.20;;
10311;SDS011;5201;48.776;9.128;2022-11-24T10:30:39;0.40;;;0.40;;
10311;SDS011;5201;48.776;9.128;2022-11-24T10:33:06;0.93;;;0.40;;
10311;SDS011;5201;48.776;9.128;2022-11-24T10:35:51;0.43;;;0.43;;
10311;SDS011;5201;48.776;9.128;2022-11-24T10:38:34;0.90;;;0.40;;
10311;SDS011;5201;48.776;9.128;2022-11-24T10:41:23;0.50;;;0.40;;
10311;SDS011;5201;48.776;9.128;2022-11-24T10:43:50;0.83;;;0.40;;
10311;SDS011;5201;48.776;9.128;2022-11-24T10:46:26;0.30;;;0.30;;
10311;SDS011;5201;48.776;9.128;2022-11-24T10:48:56;0.30;;;0.30;;
10311;SDS011;5201;48.776;9.128;2022-11-24T10:53:58;3.77;;;0.40;;
10311;SDS011;5201;48.776;9.128;2022-11-24T10:56:42;0.20;;;0.20;;
10311;SDS011;5201;48.776;9.128;2022-11-24T11:02:00;0.60;;;0.30;;
10311;SDS011;5201;48.776;9.128;2022-11-24T11:04:30;1.43;;;0.33;;
10311;SDS011;5201;48.776;9.128;2022-11-24T11:09:47;3.97;;;0.90;;
10311;SDS011;5201;48.776;9.128;2022-11-24T11:12:23;1.13;;;0.40;;
10311;SDS011;5201;48.776;9.128;2022-11-24T11:14:54;0.30;;;0.30;;
10311;SDS011;5201;48.776;9.128;2022-11-24T11:17:54;0.27;;;0.23;;
10311;SDS011;5201;48.776;9.128;2022-11-24T11:20:18;0.53;;;0.40;;
10311;SDS011;5201;48.776;9.128;2022-11-24T11:22:49;0.70;;;0.50;;
10311;SDS011;5201;48.776;9.128;2022-11-24T11:25:34;1.77;;;0.40;;
10311;SDS011;5201;48.776;9.128;2022-11-24T11:28:14;2.97;;;0.30;;
10311;SDS011;5201;48.776;9.128;2022-11-24T11:30:53;0.50;;;0.30;;
10311;SDS011;5201;48.776;9.128;2022-11-24T11:33:27;0.87;;;0.30;;
10311;SDS011;5201;48.776;9.128;2022-11-24T11:35:55;0.63;;;0.30;;
10311;SDS011;5201;48.776;9.128;2022-11-24T11:38:23;0.40;;;0.30;;
10311;SDS011;5201;48.776;9.128;2022-11-24T11:40:50;0.97;;;0.40;;
10311;SDS011;5201;48.776;9.128;2022-11-24T11:43:26;0.37;;;0.37;;
10311;SDS011;5201;48.776;9.128;2022-11-24T11:46:02;1.33;;;0.47;;
10311;SDS011;5201;48.776;9.128;2022-11-24T11:48:35;0.30;;;0.30;;
10311;SDS011;5201;48.776;9.128;2022-11-24T11:51:24;1.70;;;0.40;;
10311;SDS011;5201;48.776;9.128;2022-11-24T11:54:10;0.67;;;0.40;;
10311;SDS011;5201;48.776;9.128;2022-11-24T11:57:06;2.20;;;0.70;;
10311;SDS011;5201;48.776;9.128;2022-11-24T11:59:48;1.43;;;0.40;;
10311;SDS011;5201;48.776;9.128;2022-11-24T12:11:40;1.73;;;0.50;;
10311;SDS011;5201;48.776;9.128;2022-11-24T12:19:59;2.43;;;0.43;;
10311;SDS011;5201;48.776;9.128;2022-11-24T12:25:21;6.20;;;0.90;;
10311;SDS011;5201;48.776;9.128;2022-11-24T12:30:41;0.73;;;0.60;;
10311;SDS011;5201;48.776;9.128;2022-11-24T12:36:12;3.93;;;0.50;;
10311;SDS011;5201;48.776;9.128;2022-11-24T12:41:59;6.07;;;0.87;;
10311;SDS011;5201;48.776;9.128;2022-11-24T12:47:43;2.93;;;0.80;;
10311;SDS011;5201;48.776;9.128;2022-11-24T12:50:25;5.00;;;0.80;;
10311;SDS011;5201;48.776;9.128;2022-11-24T12:52:57;4.20;;;0.57;;
10311;SDS011;5201;48.776;9.128;2022-11-24T12:55:28;5.30;;;1.20;;
10311;SDS011;5201;48.776;9.128;2022-11-24T13:04:00;0.90;;;0.50;;
10311;SDS011;5201;48.776;9.128;2022-11-24T13:06:45;2.67;;;0.70;;
10311;SDS011;5201;48.776;9.128;2022-11-24T13:09:17;7.33;;;0.80;;
10311;SDS011;5201;48.776;9.128;2022-11-24T13:11:44;4.67;;;0.90;;
10311;SDS011;5201;48.776;9.128;2022-11-24T13:14:30;1.43;;;0.60;;
10311;SDS011;5201;48.776;9.128;2022-11-24T13:17:00;0.50;;;0.50;;
10311;SDS011;5201;48.776;9.128;2022-11-24T13:19:45;3.47;;;0.90;;
10311;SDS011;5201;48.776;9.128;2022-11-24T13:22:15;1.10;;;0.87;;
10311;SDS011;5201;48.776;9.128;2022-11-24T13:24:46;5.40;;;1.30;;
10311;SDS011;5201;48.776;9.128;2022-11-24T13:27:39;3.00;;;0.80;;
10311;SDS011;5201;48.776;9.128;2022-11-24T13:30:51;3.63;;;0.70;;
10311;SDS011;5201;48.776;9.128;2022-11-24T13:35:36;5.53;;;0.90;;
10311;SDS011;5201;48.776;9.128;2022-11-24T13:38:51;6.40;;;0.80;;
10311;SDS011;5201;48.776;9.128;2022-11-24T13:41:06;10.13;;;0.80;;
10311;SDS011;5201;48.776;9.128;2022-11-24T13:43:32;4.30;;;0.60;;
10311;SDS011;5201;48.776;9.128;2022-11-24T13:45:58;2.60;;;0.73;;
10311;SDS011;5201;48.776;9.128;2022-11-24T13:56:08;2.53;;;0.70;;
10311;SDS011;5201;48.776;9.128;2022-11-24T13:58:49;7.60;;;1.00;;
10311;SDS011;5201;48.776;9.128;2022-11-24T14:06:38;3.97;;;0.80;;
10311;SDS011;5201;48.776;9.128;2022-11-24T14:11:38;3.40;;;0.50;;
10311;SDS011;5201;48.776;9.128;2022-11-24T14:14:18;2.73;;;0.80;;
10311;SDS011;5201;48.776;9.128;2022-11-24T14:16:45;2.77;;;0.80;;
10311;SDS011;5201;48.776;9.128;2022-11-24T14:19:10;3.30;;;0.73;;
10311;SDS011;5201;48.776;9.128;2022-11-24T14:21:39;5.60;;;0.67;;
10311;SDS011;5201;48.776;9.128;2022-11-24T14:24:16;9.20;;;0.70;;
10311;SDS011;5201;48.776;9.128;2022-11-24T14:26:54;6.80;;;1.20;;
10311;SDS011;5201;48.776;9.128;2022-11-24T14:29:21;4.67;;;0.70;;
10311;SDS011;5201;48.776;9.128;2022-11-24T14:31:55;1.03;;;0.67;;
10311;SDS011;5201;48.776;9.128;2022-11-24T14:34:23;4.57;;;0.90;;
10311;SDS011;5201;48.776;9.128;2022-11-24T14:36:51;1.63;;;0.80;;
10311;SDS011;5201;48.776;9.128;2022-11-24T14:39:19;5.40;;;0.63;;
10311;SDS011;5201;48.776;9.128;2022-11-24T14:42:06;5.10;;;0.87;;
10311;SDS011;5201;48.776;9.128;2022-11-24T14:44:50;2.07;;;1.00;;
10311;SDS011;5201;48.776;9.128;2022-11-24T14:47:35;2.53;;;0.67;;
10311;SDS011;5201;48.776;9.128;2022-11-24T14:50:09;1.87;;;0.80;;
10311;SDS011;5201;48.776;9.128;2022-11-24T14:52:43;2.27;;;0.93;;
10311;SDS011;5201;48.776;9.128;2022-11-24T14:55:25;2.57;;;1.00;;
10311;SDS011;5201;48.776;9.128;2022-11-24T14:57:55;7.73;;;1.57;;
10311;SDS011;5201;48.776;9.128;2022-11-24T15:02:49;3.83;;;0.97;;
10311;SDS011;5201;48.776;9.128;2022-11-24T15:08:18;3.83;;;0.90;;
10311;SDS011;5201;48.776;9.128;2022-11-24T15:10:44;6.87;;;0.80;;
10311;SDS011;5201;48.776;9.128;2022-11-24T15:13:22;1.23;;;0.57;;
10311;SDS011;5201;48.776;9.128;2022-11-24T15:15:50;5.47;;;0.70;;
10311;SDS011;5201;48.776;9.128;2022-11-24T15:18:22;2.60;;;0.90;;
10311;SDS011;5201;48.776;9.128;2022-11-24T15:20:56;4.53;;;0.73;;
10311;SDS011;5201;48.776;9.128;2022-11-24T15:25:53;5.13;;;0.73;;
10311;SDS011;5201;48.776;9.128;2022-11-24T15:28:20;4.17;;;0.87;;
10311;SDS011;5201;48.776;9.128;2022-11-24T15:30:49;4.27;;;0.93;;
10311;SDS011;5201;48.776;9.128;2022-11-24T15:33:17;4.47;;;0.77;;
10311;SDS011;5201;48.776;9.128;2022-11-24T15:35:43;3.00;;;0.60;;
10311;SDS011;5201;48.776;9.128;2022-11-24T15:38:09;3.40;;;0.70;;
10311;SDS011;5201;48.776;9.128;2022-11-24T15:40:36;3.27;;;0.90;;
10311;SDS011;5201;48.776;9.128;2022-11-24T15:43:04;1.20;;;0.67;;
10311;SDS011;5201;48.776;9.128;2022-11-24T15:45:38;6.13;;;1.10;;
10311;SDS011;5201;48.776;9.128;2022-11-24T15:48:04;5.07;;;1.10;;
10311;SDS011;5201;48.776;9.128;2022-11-24T15:50:29;2.83;;;0.90;;
10311;SDS011;5201;48.776;9.128;2022-11-24T15:52:55;2.00;;;0.90;;
10311;SDS011;5201;48.776;9.128;2022-11-24T15:55:21;4.63;;;1.00;;
10311;SDS011;5201;48.776;9.128;2022-11-24T15:57:47;3.60;;;0.80;;
10311;SDS011;5201;48.776;9.128;2022-11-24T16:00:17;5.67;;;1.00;;
10311;SDS011;5201;48.776;9.128;2022-11-24T16:02:44;5.20;;;1.20;;
10311;SDS011;5201;48.776;9.128;2022-11-24T16:05:11;4.90;;;1.10;;
10311;SDS011;5201;48.776;9.128;2022-11-24T16:07:37;3.27;;;1.27;;
10311;SDS011;5201;48.776;9.128;2022-11-24T16:10:04;2.37;;;0.90;;
10311;SDS011;5201;48.776;9.128;2022-11-24T16:12:30;4.40;;;1.20;;
10311;SDS011;5201;48.776;9.128;2022-11-24T16:14:56;1.70;;;1.20;;
10311;SDS011;5201;48.776;9.128;2022-11-24T16:17:21;1.80;;;1.23;;
10311;SDS011;5201;48.776;9.128;2022-11-24T16:19:47;5.77;;;1.57;;
10311;SDS011;5201;48.776;9.128;2022-11-24T16:22:13;5.20;;;1.53;;
10311;SDS011;5201;48.776;9.128;2022-11-24T16:24:38;3.13;;;1.13;;
10311;SDS011;5201;48.776;9.128;2022-11-24T16:27:04;6.33;;;1.33;;
10311;SDS011;5201;48.776;9.128;2022-11-24T16:29:29;3.80;;;1.20;;
10311;SDS011;5201;48.776;9.128;2022-11-24T16:31:55;7.53;;;1.23;;
10311;SDS011;5201;48.776;9.128;2022-11-24T16:34:21;8.47;;;1.10;;
10311;SDS011;5201;48.776;9.128;2022-11-24T16:36:47;2.40;;;1.00;;
10311;SDS011;5201;48.776;9.128;2022-11-24T16:39:13;2.47;;;0.93;;
10311;SDS011;5201;48.776;9.128;2022-11-24T16:41:39;10.00;;;1.20;;
10311;SDS011;5201;48.776;9.128;2022-11-24T16:44:05;4.70;;;1.13;;
10311;SDS011;5201;48.776;9.128;2022-11-24T16:46:30;2.43;;;0.93;;
10311;SDS011;5201;48.776;9.128;2022-11-24T16:48:56;4.30;;;1.10;;